Time;durP1;ratioP1;P1;durP2;ratioP2;P2;SDS_P1;SDS_P2;PMS_P1;PMS_P2;Temp;Humidity;BMP_temperature;BMP_pressure;BME280_temperature;BME280_humidity;BME280_pressure;Samples;Min_cycle;Max_cycle;Signal;HPM_P1;HPM_P2
2023/09/23 00:00:12;;;;;;;5.53;3.47;;;13.60;99.90;;;;;;5115547;28;20499;-68
2023/09/23 00:02:42;;;;;;;4.75;3.72;;;13.60;99.90;;;;;;5114878;28;20087;-70
2023/09/23 00:05:10;;;;;;;5.78;3.53;;;13.50;99.90;;;;;;5098076;28;20043;-73
2023/09/23 00:07:36;;;;;;;8.70;4.10;;;13.50;99.90;;;;;;5097032;28;20058;-71
2023/09/23 00:10:05;;;;;;;4.68;3.40;;;13.60;99.90;;;;;;5115281;28;20040;-70
2023/09/23 00:12:32;;;;;;;4.78;3.47;;;13.50;99.90;;;;;;5115024;28;20417;-71
2023/09/23 00:14:57;;;;;;;5.65;3.05;;;13.50;99.90;;;;;;5115279;28;20048;-72
2023/09/23 00:17:23;;;;;;;5.28;3.17;;;13.50;99.90;;;;;;5096345;28;20467;-69
2023/09/23 00:19:49;;;;;;;5.18;2.75;;;13.50;99.90;;;;;;5114577;28;20043;-70
2023/09/23 00:22:15;;;;;;;3.60;2.53;;;13.50;99.90;;;;;;5096247;28;20048;-69
2023/09/23 00:24:40;;;;;;;4.03;2.40;;;13.50;99.90;;;;;;5096519;28;20040;-70
2023/09/23 00:27:07;;;;;;;4.13;2.40;;;13.50;99.90;;;;;;5097071;28;20046;-70
2023/09/23 00:29:34;;;;;;;6.28;2.63;;;13.50;99.90;;;;;;5096337;28;20112;-69
2023/09/23 00:32:00;;;;;;;3.28;2.10;;;13.40;99.90;;;;;;5114969;28;20489;-70
2023/09/23 00:34:26;;;;;;;4.28;2.60;;;13.40;99.90;;;;;;5096478;28;20071;-69
2023/09/23 00:36:52;;;;;;;3.92;2.10;;;13.40;99.90;;;;;;5114856;28;20092;-70
2023/09/23 00:39:18;;;;;;;4.28;2.33;;;13.30;99.90;;;;;;5114684;28;20540;-69
2023/09/23 00:41:44;;;;;;;3.17;2.20;;;13.30;99.90;;;;;;5114367;28;20051;-69
2023/09/23 00:44:10;;;;;;;2.38;1.90;;;13.30;99.90;;;;;;5114211;28;20515;-69
2023/09/23 00:46:37;;;;;;;4.25;2.25;;;13.30;99.90;;;;;;5114151;28;20047;-69
2023/09/23 00:49:07;;;;;;;3.28;2.00;;;13.30;99.90;;;;;;5114598;28;20410;-70
2023/09/23 00:51:34;;;;;;;4.30;2.30;;;13.30;99.90;;;;;;5114195;28;20055;-68
2023/09/23 00:54:01;;;;;;;5.05;2.28;;;13.30;99.90;;;;;;5095633;28;20430;-69
2023/09/23 00:56:28;;;;;;;2.75;2.05;;;13.30;99.90;;;;;;5095168;28;20404;-69
2023/09/23 00:58:54;;;;;;;3.92;1.98;;;13.30;99.90;;;;;;5114099;28;20039;-69
2023/09/23 01:01:21;;;;;;;3.05;1.80;;;13.20;99.90;;;;;;5114246;28;20126;-69
2023/09/23 01:03:47;;;;;;;2.78;1.60;;;13.20;99.90;;;;;;5095968;28;20059;-69
2023/09/23 01:06:16;;;;;;;4.68;2.10;;;13.20;99.90;;;;;;5114114;28;20112;-69
2023/09/23 01:08:50;;;;;;;4.68;2.38;;;13.20;99.90;;;;;;5113680;28;20053;-71
2023/09/23 01:11:19;;;;;;;5.57;2.30;;;13.10;99.90;;;;;;5114075;28;20059;-70
2023/09/23 01:13:50;;;;;;;3.42;2.25;;;13.10;99.90;;;;;;5113684;28;20043;-72
2023/09/23 01:16:16;;;;;;;4.20;2.35;;;13.10;99.90;;;;;;5113740;28;20090;-71
2023/09/23 01:18:45;;;;;;;4.95;2.42;;;13.10;99.90;;;;;;5113543;28;20094;-70
2023/09/23 01:21:12;;;;;;;6.60;3.00;;;13.10;99.90;;;;;;5113847;28;20050;-70
2023/09/23 01:23:38;;;;;;;4.22;2.50;;;13.10;99.90;;;;;;5113419;28;20058;-70
2023/09/23 01:26:04;;;;;;;5.13;2.03;;;13.10;99.90;;;;;;5113952;28;20400;-71
2023/09/23 01:28:32;;;;;;;5.57;2.22;;;13.10;99.90;;;;;;5113650;28;20035;-70
2023/09/23 01:30:59;;;;;;;3.00;1.77;;;13.10;99.90;;;;;;5094732;28;20462;-70
2023/09/23 01:33:26;;;;;;;3.75;1.75;;;13.10;99.90;;;;;;5113591;28;20086;-70
2023/09/23 01:35:57;;;;;;;3.65;1.38;;;13.10;99.90;;;;;;5113391;28;20500;-70
2023/09/23 01:38:23;;;;;;;2.40;1.50;;;13.00;99.90;;;;;;5095768;28;20062;-69
2023/09/23 01:40:49;;;;;;;2.58;1.25;;;13.00;99.90;;;;;;5113264;28;20146;-71
2023/09/23 01:43:14;;;;;;;3.80;1.55;;;13.00;99.90;;;;;;5113551;28;20083;-69
2023/09/23 01:45:40;;;;;;;3.30;1.60;;;13.00;99.90;;;;;;5113127;28;20123;-69
2023/09/23 01:48:07;;;;;;;4.38;1.80;;;13.00;99.90;;;;;;5113511;28;20047;-69
2023/09/23 01:50:32;;;;;;;3.53;1.52;;;12.90;99.90;;;;;;5095498;28;20051;-69
2023/09/23 01:53:01;;;;;;;2.95;1.58;;;12.90;99.90;;;;;;5113023;28;20105;-69
2023/09/23 01:55:27;;;;;;;5.10;1.67;;;12.90;99.90;;;;;;5113248;28;20051;-69
2023/09/23 01:57:53;;;;;;;2.10;1.45;;;12.80;99.90;;;;;;5112924;28;20058;-68
2023/09/23 02:00:24;;;;;;;3.00;1.60;;;12.90;99.90;;;;;;5112955;28;20051;-69
2023/09/23 02:02:53;;;;;;;1.55;1.30;;;12.80;99.90;;;;;;5094911;28;20050;-69
2023/09/23 02:05:20;;;;;;;2.80;1.40;;;12.80;99.90;;;;;;5113037;28;20044;-71
2023/09/23 02:07:48;;;;;;;4.43;1.92;;;12.80;99.90;;;;;;5094676;28;20055;-70
2023/09/23 02:10:15;;;;;;;5.38;1.70;;;12.80;99.90;;;;;;5113049;28;20477;-68
2023/09/23 02:12:44;;;;;;;3.15;1.67;;;12.80;99.90;;;;;;5094986;28;20131;-69
2023/09/23 02:15:15;;;;;;;5.35;1.80;;;12.70;99.90;;;;;;5112701;28;20493;-69
2023/09/23 02:17:47;;;;;;;2.20;1.38;;;12.70;99.90;;;;;;5109801;28;20051;-70
2023/09/23 02:20:21;;;;;;;3.03;1.40;;;12.70;99.90;;;;;;5113121;28;20079;-69
2023/09/23 02:22:49;;;;;;;3.08;1.48;;;12.70;99.90;;;;;;5078909;28;20044;-69
2023/09/23 02:25:16;;;;;;;3.05;1.50;;;12.70;99.90;;;;;;5112782;28;20130;-69
2023/09/23 02:27:46;;;;;;;4.45;1.60;;;12.70;99.90;;;;;;5095044;28;20104;-69
2023/09/23 02:30:13;;;;;;;4.50;1.80;;;12.70;99.90;;;;;;5113087;28;20035;-69
2023/09/23 02:32:41;;;;;;;2.95;1.60;;;12.70;99.90;;;;;;5094349;28;20048;-70
2023/09/23 02:35:11;;;;;;;4.18;1.73;;;12.70;99.90;;;;;;5112467;28;20055;-69
2023/09/23 02:37:41;;;;;;;3.25;1.95;;;12.60;99.90;;;;;;5112960;28;20105;-70
2023/09/23 02:40:12;;;;;;;3.78;2.00;;;12.60;99.90;;;;;;5112517;28;20051;-70
2023/09/23 02:42:40;;;;;;;5.00;2.08;;;12.60;99.90;;;;;;5117005;28;20047;-70
2023/09/23 02:45:07;;;;;;;4.45;2.65;;;12.50;99.90;;;;;;5116827;28;20250;-70
2023/09/23 02:47:33;;;;;;;4.97;2.60;;;12.60;99.90;;;;;;5082093;28;20152;-70
2023/09/23 02:49:58;;;;;;;5.20;2.53;;;12.50;99.90;;;;;;5081076;28;20525;-70
2023/09/23 02:52:24;;;;;;;4.53;2.90;;;12.50;99.90;;;;;;5098916;28;20111;-70
2023/09/23 02:54:54;;;;;;;3.97;2.50;;;12.50;99.90;;;;;;5116517;28;20079;-70
2023/09/23 02:57:20;;;;;;;4.60;3.42;;;12.50;99.90;;;;;;5098909;28;20123;-71
2023/09/23 02:59:53;;;;;;;5.03;3.72;;;12.50;99.90;;;;;;5082076;28;20134;-70
2023/09/23 03:02:23;;;;;;;7.30;4.05;;;12.50;99.90;;;;;;5116618;28;20051;-69
2023/09/23 03:04:58;;;;;;;6.28;4.57;;;12.40;99.90;;;;;;5116393;28;20043;-69
2023/09/23 03:07:33;;;;;;;7.38;4.68;;;12.40;99.90;;;;;;5098320;28;20078;-70
2023/09/23 03:10:01;;;;;;;7.15;4.80;;;12.40;99.90;;;;;;5116210;28;20039;-70
2023/09/23 03:12:29;;;;;;;8.30;4.78;;;12.40;99.90;;;;;;5116416;28;20118;-70
2023/09/23 03:14:56;;;;;;;8.38;5.05;;;12.40;99.90;;;;;;5116027;28;20035;-69
2023/09/23 03:17:22;;;;;;;6.55;5.18;;;12.40;99.90;;;;;;5115768;28;20052;-70
2023/09/23 03:19:51;;;;;;;7.18;5.70;;;12.30;99.90;;;;;;5081439;28;20066;-70
2023/09/23 03:22:21;;;;;;;6.90;5.50;;;12.40;99.90;;;;;;5098025;28;20078;-70
2023/09/23 03:24:48;;;;;;;6.78;5.63;;;12.30;99.90;;;;;;5116338;28;20485;-69
2023/09/23 03:27:15;;;;;;;7.55;5.78;;;12.30;99.90;;;;;;5097451;28;20059;-69
2023/09/23 03:29:41;;;;;;;7.38;5.85;;;12.30;99.90;;;;;;5081035;28;20388;-70
2023/09/23 03:32:07;;;;;;;8.77;6.07;;;12.30;99.90;;;;;;5115499;28;20535;-70
2023/09/23 03:34:34;;;;;;;8.57;6.35;;;12.30;99.90;;;;;;5115955;28;20043;-70
2023/09/23 03:37:00;;;;;;;7.88;5.70;;;12.30;99.90;;;;;;5097668;28;20047;-71
2023/09/23 03:39:26;;;;;;;8.73;5.88;;;12.20;99.90;;;;;;5097895;28;20121;-70
2023/09/23 03:41:52;;;;;;;9.23;6.38;;;12.20;99.90;;;;;;5115977;28;20054;-70
2023/09/23 03:44:18;;;;;;;10.35;5.97;;;12.20;99.90;;;;;;5115069;28;20540;-70
2023/09/23 03:46:47;;;;;;;8.50;6.28;;;12.20;99.90;;;;;;5115797;28;20134;-71
2023/09/23 03:49:13;;;;;;;9.05;6.65;;;12.20;99.90;;;;;;5097132;28;20118;-70
2023/09/23 03:51:39;;;;;;;8.40;6.40;;;12.10;99.90;;;;;;5097601;28;20093;-69
2023/09/23 03:54:05;;;;;;;7.60;6.10;;;12.10;99.90;;;;;;5114407;28;20039;-70
2023/09/23 03:56:33;;;;;;;9.25;7.00;;;12.10;99.90;;;;;;5115660;28;20392;-69
2023/09/23 03:59:00;;;;;;;9.25;6.15;;;12.10;99.90;;;;;;5115233;28;20058;-69
2023/09/23 04:01:25;;;;;;;8.68;6.75;;;12.10;99.90;;;;;;5115580;28;20130;-70
2023/09/23 04:03:51;;;;;;;7.78;6.63;;;12.10;99.90;;;;;;5115499;28;20118;-70
2023/09/23 04:06:18;;;;;;;7.28;6.55;;;12.10;99.90;;;;;;5115027;28;20122;-70
2023/09/23 04:08:44;;;;;;;8.60;6.57;;;12.00;99.90;;;;;;5115165;28;20066;-70
2023/09/23 04:11:10;;;;;;;9.32;6.90;;;12.00;99.90;;;;;;5114995;28;20039;-69
2023/09/23 04:13:38;;;;;;;8.77;6.68;;;12.00;99.90;;;;;;5115379;28;20040;-70
2023/09/23 04:16:05;;;;;;;8.65;7.13;;;12.00;99.90;;;;;;5114674;28;20060;-69
2023/09/23 04:18:31;;;;;;;8.82;7.07;;;12.00;99.90;;;;;;5080351;28;20044;-70
2023/09/23 04:21:04;;;;;;;8.68;7.07;;;12.00;99.90;;;;;;5115217;28;20050;-69
2023/09/23 04:23:30;;;;;;;9.52;7.25;;;12.00;99.90;;;;;;5115133;28;20047;-70
2023/09/23 04:25:56;;;;;;;9.57;7.18;;;12.00;99.90;;;;;;5114918;28;20039;-69
2023/09/23 04:28:22;;;;;;;8.20;7.40;;;12.00;99.90;;;;;;5114332;28;20039;-72
2023/09/23 04:30:52;;;;;;;11.48;7.57;;;12.00;99.90;;;;;;5114554;28;20492;-70
2023/09/23 04:33:18;;;;;;;9.07;7.32;;;12.00;99.90;;;;;;5114480;28;20126;-70
2023/09/23 04:35:44;;;;;;;10.65;7.57;;;12.00;99.90;;;;;;5114499;28;20083;-70
2023/09/23 04:38:10;;;;;;;11.48;7.38;;;12.00;99.90;;;;;;5114385;28;20044;-69
2023/09/23 04:40:37;;;;;;;9.60;7.68;;;12.00;99.90;;;;;;5096652;28;20536;-70
2023/09/23 04:43:04;;;;;;;9.45;7.40;;;12.00;99.90;;;;;;5114759;28;20055;-70
2023/09/23 04:45:30;;;;;;;8.13;6.85;;;12.00;99.90;;;;;;5096580;28;20127;-69
2023/09/23 04:47:55;;;;;;;8.50;6.90;;;12.00;99.90;;;;;;5114504;28;20126;-70
2023/09/23 04:50:24;;;;;;;7.50;6.00;;;12.00;99.90;;;;;;5095684;28;20043;-69
2023/09/23 04:52:50;;;;;;;8.23;6.30;;;12.00;99.90;;;;;;5096187;28;20350;-71
2023/09/23 04:55:16;;;;;;;11.63;6.38;;;12.00;99.90;;;;;;5114021;28;20043;-71
2023/09/23 04:57:42;;;;;;;10.30;6.22;;;12.00;99.90;;;;;;5114257;28;20040;-70
2023/09/23 05:00:19;;;;;;;8.20;5.97;;;11.90;99.90;;;;;;5113691;28;20042;-70
2023/09/23 05:02:49;;;;;;;10.48;6.70;;;12.00;99.90;;;;;;5114300;28;20058;-70
2023/09/23 05:05:17;;;;;;;7.60;5.75;;;11.90;99.90;;;;;;5113702;28;20123;-70
2023/09/23 05:07:43;;;;;;;8.40;6.05;;;11.90;99.90;;;;;;5113930;28;20109;-70
2023/09/23 05:10:09;;;;;;;8.50;5.95;;;11.90;99.90;;;;;;5095265;28;20035;-70
2023/09/23 05:12:35;;;;;;;8.32;5.88;;;11.90;99.90;;;;;;5113861;28;20392;-70
2023/09/23 05:15:01;;;;;;;8.27;6.47;;;11.90;99.90;;;;;;5095852;28;20040;-71
2023/09/23 05:17:28;;;;;;;7.28;5.97;;;11.80;99.90;;;;;;5112787;28;20142;-70
2023/09/23 05:19:54;;;;;;;7.30;6.15;;;11.90;99.90;;;;;;5078666;28;20428;-71
2023/09/23 05:22:20;;;;;;;6.68;5.63;;;11.90;99.90;;;;;;5094998;28;20051;-70
2023/09/23 05:24:54;;;;;;;10.43;5.72;;;11.90;99.90;;;;;;5113686;28;20491;-70
2023/09/23 05:27:20;;;;;;;9.27;5.97;;;11.90;99.90;;;;;;5113056;28;20048;-70
2023/09/23 05:29:50;;;;;;;7.20;6.05;;;11.90;99.90;;;;;;5113078;28;20377;-70
2023/09/23 05:32:16;;;;;;;7.40;6.43;;;11.90;99.90;;;;;;5095208;28;20450;-71
2023/09/23 05:34:42;;;;;;;6.85;5.00;;;11.90;99.90;;;;;;5113338;28;20132;-71
2023/09/23 05:37:11;;;;;;;6.60;5.53;;;11.90;99.90;;;;;;5113412;28;20043;-71
2023/09/23 05:39:39;;;;;;;6.65;5.95;;;11.80;99.90;;;;;;5112772;28;20047;-70
2023/09/23 05:42:05;;;;;;;9.13;6.15;;;11.80;99.90;;;;;;5094691;28;20044;-71
2023/09/23 05:44:31;;;;;;;7.10;5.95;;;11.80;99.90;;;;;;5112640;28;20061;-71
2023/09/23 05:46:57;;;;;;;10.07;6.53;;;11.80;99.90;;;;;;5078112;28;20038;-71
2023/09/23 05:49:23;;;;;;;8.57;5.85;;;11.70;99.90;;;;;;5112669;28;20171;-71
2023/09/23 05:51:52;;;;;;;7.82;6.45;;;11.70;99.90;;;;;;5095246;28;20048;-71
2023/09/23 05:54:20;;;;;;;7.78;5.95;;;11.70;99.90;;;;;;5112655;28;20086;-70
2023/09/23 05:56:46;;;;;;;8.02;6.78;;;11.70;99.90;;;;;;5094655;28;20036;-71
2023/09/23 05:59:12;;;;;;;7.80;6.55;;;11.70;99.90;;;;;;5095006;28;20460;-70
2023/09/23 06:01:40;;;;;;;8.82;6.88;;;11.70;99.90;;;;;;5094567;28;20040;-71
2023/09/23 06:04:09;;;;;;;7.85;6.63;;;11.80;99.90;;;;;;5112635;28;20515;-71
2023/09/23 06:06:38;;;;;;;9.38;7.90;;;11.80;99.90;;;;;;5094695;28;20362;-71
2023/09/23 06:09:05;;;;;;;8.48;7.32;;;11.80;99.90;;;;;;5112891;28;20050;-71
2023/09/23 06:11:34;;;;;;;9.48;7.32;;;11.80;99.90;;;;;;5094444;28;20050;-71
2023/09/23 06:14:00;;;;;;;8.70;7.55;;;11.80;99.90;;;;;;5112374;28;20507;-70
2023/09/23 06:16:26;;;;;;;10.00;8.20;;;11.90;99.90;;;;;;5111943;28;20044;-71
2023/09/23 06:18:52;;;;;;;10.32;7.68;;;11.90;99.90;;;;;;5113073;28;20043;-71
2023/09/23 06:21:18;;;;;;;9.48;7.72;;;11.90;99.90;;;;;;5112707;28;20089;-70
2023/09/23 06:23:44;;;;;;;11.10;8.45;;;11.90;99.90;;;;;;5112562;28;20083;-70
2023/09/23 06:26:10;;;;;;;10.77;9.02;;;12.00;99.90;;;;;;5078078;28;20059;-70
2023/09/23 06:28:36;;;;;;;12.07;8.15;;;12.00;99.90;;;;;;5094516;28;20044;-71
2023/09/23 06:31:03;;;;;;;12.57;8.55;;;12.10;99.90;;;;;;5094592;28;20082;-71
2023/09/23 06:33:29;;;;;;;9.75;8.35;;;12.10;99.90;;;;;;5094436;28;20054;-70
2023/09/23 06:35:55;;;;;;;13.10;8.73;;;12.20;99.90;;;;;;5094757;28;20053;-71
2023/09/23 06:38:21;;;;;;;12.20;8.75;;;12.20;99.90;;;;;;5094680;28;20396;-70
2023/09/23 06:40:47;;;;;;;10.70;8.93;;;12.30;99.90;;;;;;5112589;28;20040;-71
2023/09/23 06:43:12;;;;;;;10.55;8.95;;;12.30;99.90;;;;;;5112907;28;20533;-71
2023/09/23 06:45:39;;;;;;;12.40;9.60;;;12.30;99.90;;;;;;5112300;28;20043;-70
2023/09/23 06:48:05;;;;;;;13.93;10.38;;;12.40;99.90;;;;;;5112549;28;20058;-71
2023/09/23 06:50:31;;;;;;;13.07;9.77;;;12.50;99.90;;;;;;5112354;28;20059;-71
2023/09/23 06:52:57;;;;;;;11.35;9.70;;;12.60;99.90;;;;;;5112730;28;20047;-71
2023/09/23 06:55:23;;;;;;;13.65;10.32;;;12.80;99.90;;;;;;5094448;28;20046;-70
2023/09/23 06:57:48;;;;;;;13.02;9.77;;;12.90;99.90;;;;;;5094119;28;20123;-70
2023/09/23 07:00:14;;;;;;;13.75;11.02;;;13.00;99.90;;;;;;5094628;28;20050;-71
2023/09/23 07:02:40;;;;;;;13.85;10.50;;;13.00;99.90;;;;;;5112118;28;20043;-71
2023/09/23 07:05:06;;;;;;;12.43;10.55;;;13.00;99.90;;;;;;5112546;28;20047;-71
2023/09/23 07:07:32;;;;;;;13.90;11.45;;;13.00;99.90;;;;;;5093745;28;20046;-71
2023/09/23 07:09:57;;;;;;;14.18;11.52;;;13.00;99.90;;;;;;5094147;28;20046;-70
2023/09/23 07:12:23;;;;;;;13.32;11.93;;;13.00;99.90;;;;;;5112717;28;20437;-71
2023/09/23 07:14:49;;;;;;;13.35;11.52;;;13.00;99.90;;;;;;5094009;28;20047;-70
2023/09/23 07:17:15;;;;;;;13.63;11.23;;;13.00;99.90;;;;;;5111916;28;20054;-70
2023/09/23 07:19:41;;;;;;;13.20;11.18;;;13.00;99.90;;;;;;5111983;28;20047;-70
2023/09/23 07:22:06;;;;;;;12.70;10.95;;;13.00;99.90;;;;;;5112216;28;20043;-71
2023/09/23 07:24:35;;;;;;;16.23;11.88;;;13.00;99.90;;;;;;5111790;28;20048;-72
2023/09/23 07:27:01;;;;;;;18.52;11.80;;;13.10;99.90;;;;;;5112162;28;20047;-70
2023/09/23 07:29:27;;;;;;;13.43;11.13;;;13.10;99.90;;;;;;5114967;28;20047;-72
2023/09/23 07:31:53;;;;;;;15.60;11.60;;;13.10;99.90;;;;;;5115433;28;20210;-70
2023/09/23 07:34:19;;;;;;;16.05;12.25;;;13.20;99.90;;;;;;5115662;28;20050;-70
2023/09/23 07:36:45;;;;;;;19.00;10.95;;;13.30;99.90;;;;;;5115090;28;20086;-68
2023/09/23 07:39:12;;;;;;;16.70;10.52;;;13.40;99.90;;;;;;5115538;28;20040;-69
2023/09/23 07:41:37;;;;;;;13.27;10.27;;;13.50;99.90;;;;;;5097154;28;20104;-69
2023/09/23 07:44:04;;;;;;;12.90;11.00;;;13.50;99.90;;;;;;5097221;28;20044;-70
2023/09/23 07:46:29;;;;;;;15.40;11.40;;;13.60;99.90;;;;;;5097484;28;20066;-69
2023/09/23 07:48:55;;;;;;;14.05;10.13;;;13.70;99.90;;;;;;5114848;28;20039;-69
2023/09/23 07:51:21;;;;;;;14.15;10.63;;;13.70;99.90;;;;;;5115198;28;20079;-69
2023/09/23 07:53:47;;;;;;;17.23;9.70;;;14.40;99.90;;;;;;5096742;28;20044;-69
2023/09/23 07:56:13;;;;;;;13.82;9.40;;;15.60;99.90;;;;;;5097364;28;20052;-69
2023/09/23 07:58:38;;;;;;;12.55;9.48;;;16.80;99.90;;;;;;5114910;28;20043;-70
2023/09/23 08:01:04;;;;;;;9.50;7.82;;;17.70;99.90;;;;;;5097166;28;20047;-68
2023/09/23 08:03:30;;;;;;;11.88;7.95;;;18.50;99.90;;;;;;5115310;28;20044;-70
2023/09/23 08:05:56;;;;;;;11.65;7.97;;;19.20;99.90;;;;;;5114769;28;20040;-69
2023/09/23 08:08:22;;;;;;;9.18;8.13;;;19.50;99.90;;;;;;5096989;28;20047;-69
2023/09/23 08:10:50;;;;;;;10.50;7.80;;;19.50;99.90;;;;;;5114583;28;20098;-69
2023/09/23 08:13:20;;;;;;;9.18;7.75;;;19.20;99.90;;;;;;5115175;28;20501;-69
2023/09/23 08:15:46;;;;;;;10.95;9.00;;;18.90;99.90;;;;;;5079934;28;20453;-69
2023/09/23 08:18:12;;;;;;;10.45;8.48;;;18.50;99.90;;;;;;5096553;28;20091;-68
2023/09/23 08:20:41;;;;;;;10.70;8.38;;;18.00;99.90;;;;;;5114465;28;20056;-69
2023/09/23 08:23:07;;;;;;;11.15;8.90;;;17.60;99.90;;;;;;5114966;28;20050;-68
2023/09/23 08:25:34;;;;;;;10.57;8.35;;;17.30;99.90;;;;;;5114976;28;20043;-69
2023/09/23 08:28:01;;;;;;;9.50;8.20;;;16.90;99.90;;;;;;5114516;28;20047;-68
2023/09/23 08:30:27;;;;;;;10.10;8.38;;;16.70;99.90;;;;;;5114776;28;20047;-68
2023/09/23 08:32:54;;;;;;;12.68;8.57;;;16.60;99.90;;;;;;5114415;28;20047;-68
2023/09/23 08:35:20;;;;;;;11.02;8.05;;;16.60;99.90;;;;;;5114669;28;20058;-67
2023/09/23 08:37:46;;;;;;;12.77;8.32;;;16.60;99.90;;;;;;5114222;28;20396;-68
2023/09/23 08:40:19;;;;;;;9.82;8.15;;;16.60;99.90;;;;;;5096128;28;20044;-68
2023/09/23 08:42:51;;;;;;;11.38;7.40;;;16.60;99.90;;;;;;5114563;28;20047;-69
2023/09/23 08:45:23;;;;;;;9.10;7.43;;;16.80;99.90;;;;;;5114689;28;20048;-68
2023/09/23 08:47:49;;;;;;;8.85;6.28;;;17.50;99.90;;;;;;5114094;28;20047;-67
2023/09/23 08:50:16;;;;;;;10.10;6.40;;;18.30;99.90;;;;;;5114283;28;20143;-68
2023/09/23 08:52:41;;;;;;;9.55;6.15;;;19.20;99.90;;;;;;5113931;28;20504;-68
2023/09/23 08:55:10;;;;;;;9.13;6.40;;;19.90;99.90;;;;;;5114244;28;20044;-68
2023/09/23 08:57:36;;;;;;;7.50;5.60;;;20.40;99.90;;;;;;5096215;28;20043;-68
2023/09/23 09:00:07;;;;;;;7.32;5.60;;;20.80;99.90;;;;;;5113715;28;20041;-68
2023/09/23 09:02:33;;;;;;;9.20;5.13;;;21.20;99.90;;;;;;5113814;28;20500;-70
2023/09/23 09:04:59;;;;;;;6.47;4.82;;;21.60;99.90;;;;;;5078866;28;20054;-70
2023/09/23 09:07:45;;;;;;;6.30;4.15;;;21.50;99.90;;;;;;5114036;28;20043;-68
2023/09/23 09:10:10;;;;;;;5.63;4.18;;;21.40;99.90;;;;;;5095138;28;20102;-69
2023/09/23 09:12:36;;;;;;;6.60;4.10;;;21.00;99.90;;;;;;5114078;28;20082;-68
2023/09/23 09:15:03;;;;;;;6.65;4.00;;;20.80;99.90;;;;;;5113605;28;20396;-68
2023/09/23 09:17:33;;;;;;;6.55;3.75;;;20.50;99.90;;;;;;5113509;28;20090;-69
2023/09/23 09:20:09;;;;;;;5.57;3.45;;;20.20;99.90;;;;;;5113455;28;20409;-68
2023/09/23 09:22:36;;;;;;;7.35;4.05;;;19.90;99.90;;;;;;5113958;28;20040;-69
2023/09/23 09:25:03;;;;;;;6.18;3.42;;;19.70;99.90;;;;;;5078737;28;20047;-70
2023/09/23 09:27:29;;;;;;;5.97;3.55;;;19.50;99.90;;;;;;5078803;28;20051;-69
2023/09/23 09:29:55;;;;;;;7.13;3.72;;;19.40;99.90;;;;;;5112944;28;20370;-69
2023/09/23 09:32:29;;;;;;;6.35;3.78;;;19.20;99.90;;;;;;5113549;28;20051;-69
2023/09/23 09:34:59;;;;;;;6.60;4.00;;;19.10;99.90;;;;;;5095146;28;20523;-70
2023/09/23 09:37:26;;;;;;;7.13;3.83;;;19.00;99.90;;;;;;5113367;28;20051;-68
2023/09/23 09:40:00;;;;;;;8.05;3.95;;;18.90;99.90;;;;;;5112970;28;20039;-70
2023/09/23 09:42:32;;;;;;;6.13;3.65;;;18.80;99.90;;;;;;5095083;28;20039;-69
2023/09/23 09:44:58;;;;;;;5.90;3.42;;;18.90;99.90;;;;;;5112980;28;20123;-69
2023/09/23 09:47:24;;;;;;;5.18;2.90;;;19.00;99.90;;;;;;5095418;28;20517;-68
2023/09/23 09:49:54;;;;;;;5.97;3.20;;;19.00;99.90;;;;;;5094682;28;20044;-69
2023/09/23 09:52:26;;;;;;;7.82;2.95;;;19.00;99.90;;;;;;5094755;28;20051;-70
2023/09/23 09:54:54;;;;;;;8.02;2.92;;;19.10;99.90;;;;;;5094798;28;20039;-69
2023/09/23 09:57:26;;;;;;;5.70;2.85;;;19.10;99.90;;;;;;5095216;28;20056;-70
2023/09/23 10:00:00;;;;;;;6.47;2.90;;;19.20;99.90;;;;;;5095010;28;20437;-69
2023/09/23 10:02:27;;;;;;;6.25;2.58;;;19.30;99.90;;;;;;5113090;28;20043;-68
2023/09/23 10:04:53;;;;;;;4.38;2.10;;;19.30;99.90;;;;;;5112934;28;20048;-68
2023/09/23 10:07:22;;;;;;;4.90;2.30;;;19.20;99.90;;;;;;5094799;28;20407;-69
2023/09/23 10:09:58;;;;;;;6.25;2.15;;;19.10;99.90;;;;;;5094466;28;20760;-69
2023/09/23 10:12:31;;;;;;;6.68;2.28;;;19.10;99.90;;;;;;5112908;28;20091;-69
2023/09/23 10:14:58;;;;;;;6.10;2.20;;;19.10;99.90;;;;;;5094535;28;20435;-69
2023/09/23 10:17:31;;;;;;;5.03;2.30;;;19.00;99.90;;;;;;5112622;28;20069;-69
2023/09/23 10:19:57;;;;;;;6.47;2.28;;;19.00;99.90;;;;;;5094418;28;20118;-69
2023/09/23 10:22:24;;;;;;;5.18;2.47;;;18.90;99.90;;;;;;5112922;28;20055;-69
2023/09/23 10:25:19;;;;;;;6.90;2.42;;;18.70;99.90;;;;;;5112823;28;20130;-70
2023/09/23 10:27:59;;;;;;;4.72;2.30;;;18.50;99.90;;;;;;5073696;28;20405;-72
2023/09/23 10:30:26;;;;;;;4.00;2.20;;;18.30;99.90;;;;;;5112785;28;20044;-70
2023/09/23 10:32:52;;;;;;;6.93;2.38;;;18.10;99.90;;;;;;5112453;28;20047;-70
2023/09/23 10:35:23;;;;;;;9.02;2.30;;;17.90;99.90;;;;;;5112404;28;20617;-69
2023/09/23 10:37:49;;;;;;;4.50;2.30;;;17.80;99.90;;;;;;5112747;28;20044;-70
2023/09/23 10:40:17;;;;;;;5.35;2.50;;;17.70;99.90;;;;;;5110320;28;20388;-71
2023/09/23 10:42:49;;;;;;;6.30;2.78;;;17.70;99.90;;;;;;5110766;28;20485;-69
2023/09/23 10:45:17;;;;;;;4.10;1.95;;;17.70;99.90;;;;;;5111796;28;20073;-70
2023/09/23 10:47:44;;;;;;;5.85;2.47;;;17.60;99.90;;;;;;5094586;28;20047;-70
2023/09/23 10:50:10;;;;;;;5.55;2.65;;;17.40;99.90;;;;;;5112090;28;20062;-69
2023/09/23 10:52:36;;;;;;;5.13;2.63;;;17.30;99.90;;;;;;5112586;28;20122;-70
2023/09/23 10:55:03;;;;;;;6.93;2.92;;;17.30;99.90;;;;;;5112328;28;20043;-71
2023/09/23 10:57:29;;;;;;;6.78;2.58;;;17.30;99.90;;;;;;5112961;28;20135;-72
2023/09/23 10:59:56;;;;;;;5.43;2.63;;;17.30;99.90;;;;;;5111936;28;20540;-71
2023/09/23 11:02:23;;;;;;;5.18;2.75;;;17.50;99.90;;;;;;5095719;28;20035;-71
2023/09/23 11:04:49;;;;;;;8.57;2.30;;;17.60;99.90;;;;;;5116102;28;20047;-70
2023/09/23 11:07:16;;;;;;;7.95;2.63;;;17.70;99.90;;;;;;5114729;28;20392;-70
2023/09/23 11:09:45;;;;;;;7.32;3.05;;;17.60;99.90;;;;;;5115650;28;20481;-72
2023/09/23 11:12:15;;;;;;;4.78;2.33;;;17.60;99.90;;;;;;5114587;28;20054;-71
2023/09/23 11:14:46;;;;;;;6.47;2.70;;;17.50;99.90;;;;;;5116284;28;20036;-70
2023/09/23 11:17:25;;;;;;;4.10;1.90;;;17.40;99.90;;;;;;5114530;28;20397;-70
2023/09/23 11:20:01;;;;;;;4.28;1.75;;;17.30;99.90;;;;;;5115802;28;20044;-70
2023/09/23 11:22:29;;;;;;;5.25;2.00;;;17.30;99.90;;;;;;5097239;28;20043;-71
2023/09/23 11:24:56;;;;;;;5.47;2.00;;;17.30;99.90;;;;;;5115259;28;20511;-71
2023/09/23 11:27:23;;;;;;;3.92;2.08;;;17.30;99.90;;;;;;5096558;28;20470;-70
2023/09/23 11:29:49;;;;;;;6.75;2.05;;;17.30;99.90;;;;;;5115460;28;20503;-71
2023/09/23 11:32:20;;;;;;;8.45;2.40;;;17.30;99.90;;;;;;5080538;28;20133;-71
2023/09/23 11:34:46;;;;;;;6.05;2.30;;;17.40;99.90;;;;;;5115362;28;20123;-70
2023/09/23 11:37:12;;;;;;;4.22;2.30;;;17.50;99.90;;;;;;5097060;28;20142;-71
2023/09/23 11:39:37;;;;;;;4.70;2.20;;;17.60;99.90;;;;;;5097402;28;20074;-71
2023/09/23 11:42:04;;;;;;;5.18;2.90;;;17.70;99.90;;;;;;5114656;28;20043;-74
2023/09/23 11:44:29;;;;;;;8.55;3.55;;;17.70;99.90;;;;;;5114801;28;20492;-71
2023/09/23 11:46:55;;;;;;;7.20;2.92;;;17.70;99.90;;;;;;5097518;28;20047;-73
2023/09/23 11:49:21;;;;;;;6.00;2.50;;;17.60;99.90;;;;;;5114211;28;20044;-71
2023/09/23 11:51:47;;;;;;;8.38;2.63;;;17.50;99.90;;;;;;5115367;28;20050;-71
2023/09/23 11:54:14;;;;;;;3.50;2.28;;;17.40;99.90;;;;;;5096488;28;20134;-70
2023/09/23 11:56:39;;;;;;;5.28;2.33;;;17.40;99.90;;;;;;5097435;28;20058;-70
2023/09/23 11:59:05;;;;;;;6.45;2.80;;;17.40;99.90;;;;;;5115385;28;20039;-70
2023/09/23 12:01:31;;;;;;;4.35;2.20;;;17.30;99.90;;;;;;5096159;28;20503;-71
2023/09/23 12:03:58;;;;;;;6.07;2.70;;;17.30;99.90;;;;;;5115417;28;20039;-71
2023/09/23 12:06:25;;;;;;;4.13;2.53;;;17.20;99.90;;;;;;5113908;28;20484;-70
2023/09/23 12:08:51;;;;;;;3.40;1.50;;;17.20;99.90;;;;;;5113592;28;20043;-70
2023/09/23 12:11:19;;;;;;;4.55;1.38;;;17.10;99.90;;;;;;5113496;28;20122;-69
2023/09/23 12:13:45;;;;;;;2.15;1.10;;;17.10;99.90;;;;;;5096425;28;20048;-71
2023/09/23 12:16:12;;;;;;;3.58;1.17;;;17.10;99.90;;;;;;5096541;28;20101;-70
2023/09/23 12:18:38;;;;;;;3.53;1.23;;;17.10;99.90;;;;;;5096446;28;20138;-70
2023/09/23 12:21:04;;;;;;;1.83;1.10;;;17.30;99.90;;;;;;5114201;28;20126;-71
2023/09/23 12:23:31;;;;;;;1.48;0.98;;;17.30;99.90;;;;;;5096627;28;20130;-74
2023/09/23 12:25:57;;;;;;;3.13;1.38;;;17.40;99.90;;;;;;5113720;28;20043;-70
2023/09/23 12:28:23;;;;;;;1.40;0.90;;;17.50;99.90;;;;;;5113859;28;20157;-71
2023/09/23 12:30:48;;;;;;;1.83;0.88;;;17.60;99.90;;;;;;5114422;28;20096;-71
2023/09/23 12:33:14;;;;;;;1.67;1.10;;;17.60;99.90;;;;;;5096770;28;20044;-71
2023/09/23 12:35:40;;;;;;;2.60;1.23;;;17.70;99.90;;;;;;5096007;28;20127;-71
2023/09/23 12:38:07;;;;;;;2.45;1.40;;;17.50;99.90;;;;;;5096144;28;20047;-72
2023/09/23 12:40:33;;;;;;;2.72;1.40;;;17.50;99.90;;;;;;5078663;28;20052;-70
2023/09/23 12:42:58;;;;;;;2.65;1.25;;;17.50;99.90;;;;;;5095090;28;20127;-70